Time;durP1;ratioP1;P1;durP2;ratioP2;P2;SDS_P1;SDS_P2;PMS_P1;PMS_P2;Temp;Humidity;BMP_temperature;BMP_pressure;BME280_temperature;BME280_humidity;BME280_pressure;Samples;Min_cycle;Max_cycle;Signal;HPM_P1;HPM_P2
2021/12/21 00:00:47;;;;;;;6.80;3.10;;;3.00;57.20;;;;;;4887610;29;20072;-78
2021/12/21 00:03:13;;;;;;;7.60;3.40;;;3.00;57.40;;;;;;4865402;29;20033;-78
2021/12/21 00:05:40;;;;;;;6.13;3.40;;;3.00;57.40;;;;;;4904035;29;20028;-78
2021/12/21 00:08:11;;;;;;;6.40;3.43;;;2.90;57.20;;;;;;4887761;29;20051;-77
2021/12/21 00:10:39;;;;;;;4.70;2.70;;;2.90;57.20;;;;;;4903891;29;20445;-78
2021/12/21 00:13:09;;;;;;;7.00;4.17;;;2.90;57.30;;;;;;4894667;29;20472;-78
2021/12/21 00:21:13;;;;;;;6.23;3.27;;;2.80;57.60;;;;;;4892301;29;20042;-78
2021/12/21 00:23:46;;;;;;;7.00;3.73;;;2.70;57.70;;;;;;4891400;29;20021;-78
2021/12/21 00:26:12;;;;;;;5.55;2.95;;;2.70;57.80;;;;;;4891336;29;20047;-78
2021/12/21 00:29:01;;;;;;;7.40;3.53;;;2.70;58.00;;;;;;4894344;29;20036;-77
2021/12/21 00:31:30;;;;;;;5.17;2.40;;;2.60;58.20;;;;;;4886033;29;20040;-77
2021/12/21 00:33:56;;;;;;;5.13;3.00;;;2.70;58.00;;;;;;4877628;29;20051;-78
2021/12/21 00:36:24;;;;;;;6.60;3.40;;;2.70;57.90;;;;;;4872249;29;20045;-78
2021/12/21 00:38:52;;;;;;;5.43;3.50;;;2.70;57.70;;;;;;4871973;29;20480;-78
2021/12/21 00:41:19;;;;;;;5.13;3.23;;;2.70;57.70;;;;;;4888889;29;20037;-78
2021/12/21 00:43:46;;;;;;;7.30;3.63;;;2.70;57.60;;;;;;4872874;29;20039;-77
2021/12/21 00:46:11;;;;;;;9.20;4.20;;;2.60;57.80;;;;;;4896131;29;20036;-77
2021/12/21 00:48:46;;;;;;;7.37;4.47;;;2.60;57.90;;;;;;4885435;29;20055;-78
2021/12/21 00:51:12;;;;;;;10.60;3.70;;;2.60;58.20;;;;;;4892303;29;20021;-78
2021/12/21 00:53:39;;;;;;;8.00;3.47;;;2.50;57.90;;;;;;4903412;29;20490;-77
2021/12/21 00:56:05;;;;;;;6.53;3.77;;;2.40;58.00;;;;;;4881991;29;20040;-77
2021/12/21 00:58:31;;;;;;;7.10;3.40;;;2.30;58.10;;;;;;4903509;29;20033;-78
2021/12/21 01:01:01;;;;;;;7.70;4.13;;;2.30;58.00;;;;;;4907411;29;20093;-78
2021/12/21 01:03:27;;;;;;;6.77;3.90;;;2.30;58.20;;;;;;4889447;29;20051;-77
2021/12/21 01:06:01;;;;;;;5.30;3.07;;;2.30;58.10;;;;;;4886073;29;20036;-77
2021/12/21 01:08:30;;;;;;;6.57;3.40;;;2.30;58.10;;;;;;4893882;29;20052;-77
2021/12/21 01:11:14;;;;;;;8.10;3.20;;;2.20;58.10;;;;;;4903846;29;20083;-77
2021/12/21 01:13:55;;;;;;;4.37;3.00;;;2.20;58.10;;;;;;4889353;29;20443;-77
2021/12/21 01:19:22;;;;;;;10.07;3.77;;;2.30;57.90;;;;;;4904154;29;20037;-78
2021/12/21 01:27:03;;;;;;;6.03;3.50;;;2.20;58.00;;;;;;4897446;29;20041;-78
2021/12/21 01:32:19;;;;;;;6.23;3.20;;;2.10;58.00;;;;;;4899575;29;20546;-78
2021/12/21 01:34:59;;;;;;;7.47;3.13;;;2.10;58.00;;;;;;4892938;29;20115;-78
2021/12/21 01:40:01;;;;;;;7.40;3.60;;;2.10;58.10;;;;;;4902700;29;20121;-77
2021/12/21 01:43:32;;;;;;;5.93;3.23;;;2.00;58.20;;;;;;4881424;29;20037;-77
2021/12/21 01:50:53;;;;;;;8.07;3.63;;;1.90;58.70;;;;;;4916180;29;20047;-77
2021/12/21 01:53:19;;;;;;;6.27;3.53;;;1.80;59.10;;;;;;4911784;29;20028;-78
2021/12/21 01:55:46;;;;;;;8.00;3.90;;;1.80;58.60;;;;;;4901576;29;20040;-78
2021/12/21 01:58:12;;;;;;;8.70;4.20;;;1.80;58.60;;;;;;4886756;29;20055;-78
2021/12/21 02:00:39;;;;;;;6.27;4.03;;;1.70;58.70;;;;;;4888830;29;20535;-77
2021/12/21 02:03:06;;;;;;;8.53;4.40;;;1.70;58.60;;;;;;4897433;29;20032;-77
2021/12/21 02:05:32;;;;;;;7.93;4.37;;;1.70;58.60;;;;;;4897476;29;20061;-77
2021/12/21 02:07:58;;;;;;;9.03;3.83;;;1.70;58.80;;;;;;4897693;29;20144;-78
2021/12/21 02:10:23;;;;;;;9.07;4.30;;;1.60;58.80;;;;;;4877162;29;20397;-78
2021/12/21 02:12:50;;;;;;;8.17;4.30;;;1.50;58.90;;;;;;4894364;29;20037;-78
2021/12/21 02:15:17;;;;;;;6.03;3.67;;;1.50;59.00;;;;;;4883212;29;20040;-78
2021/12/21 02:20:25;;;;;;;6.40;3.40;;;1.50;58.90;;;;;;4900648;29;20043;-78
2021/12/21 02:30:42;;;;;;;8.37;5.53;;;1.40;59.20;;;;;;4892083;29;20468;-78
2021/12/21 02:33:09;;;;;;;8.83;5.40;;;1.30;59.50;;;;;;4901607;29;20095;-77
2021/12/21 02:35:35;;;;;;;9.40;4.67;;;1.30;59.70;;;;;;4900320;29;20033;-78
2021/12/21 02:38:01;;;;;;;7.53;4.43;;;1.20;59.80;;;;;;4899579;29;20036;-77
2021/12/21 02:40:28;;;;;;;10.23;4.40;;;1.30;59.80;;;;;;4879167;29;20045;-77
2021/12/21 02:42:54;;;;;;;9.50;3.73;;;1.20;59.70;;;;;;4874749;29;20487;-77
2021/12/21 02:45:19;;;;;;;8.67;4.27;;;1.20;59.90;;;;;;4893168;29;20076;-78
2021/12/21 02:47:45;;;;;;;7.60;4.67;;;1.20;59.90;;;;;;4902146;29;20064;-77
2021/12/21 02:50:11;;;;;;;7.53;4.07;;;1.30;59.90;;;;;;4883566;29;20037;-77
2021/12/21 02:52:36;;;;;;;8.03;4.53;;;1.30;59.70;;;;;;4893396;29;20525;-77
2021/12/21 02:55:04;;;;;;;9.07;4.87;;;1.30;59.70;;;;;;4903363;29;20088;-77
2021/12/21 02:57:30;;;;;;;9.30;4.57;;;1.20;59.80;;;;;;4902479;29;20044;-78
2021/12/21 02:59:56;;;;;;;11.47;4.60;;;1.10;60.00;;;;;;4879524;29;20041;-78
2021/12/21 03:02:22;;;;;;;7.17;4.30;;;1.10;60.30;;;;;;4896518;29;20107;-78
2021/12/21 03:04:51;;;;;;;8.57;4.47;;;1.10;60.30;;;;;;4895380;29;20523;-78
2021/12/21 03:08:04;;;;;;;8.37;3.63;;;1.10;60.10;;;;;;4873531;29;20061;-77
2021/12/21 03:10:12;;;;;;;10.23;4.57;;;1.00;60.40;;;;;;4890500;29;20068;-77
2021/12/21 03:15:28;;;;;;;7.20;3.93;;;1.00;60.30;;;;;;4896488;29;20040;-77
2021/12/21 03:17:55;;;;;;;7.87;4.30;;;0.90;60.30;;;;;;4896970;29;20047;-78
2021/12/21 03:20:22;;;;;;;12.80;4.63;;;0.90;60.60;;;;;;4880631;29;20116;-78
2021/12/21 03:22:48;;;;;;;6.80;3.77;;;1.00;60.50;;;;;;4886069;29;20063;-77
2021/12/21 03:25:14;;;;;;;8.07;4.43;;;1.00;60.30;;;;;;4879937;29;20111;-78
2021/12/21 03:27:40;;;;;;;8.97;4.80;;;0.90;60.40;;;;;;4891317;29;20032;-77
2021/12/21 03:30:10;;;;;;;10.60;4.50;;;0.90;60.40;;;;;;4884193;29;20377;-77
2021/12/21 03:32:36;;;;;;;6.10;3.43;;;0.90;60.50;;;;;;4882045;29;20124;-77
2021/12/21 03:35:02;;;;;;;6.67;3.70;;;0.90;60.70;;;;;;4883735;29;20451;-78
2021/12/21 03:37:28;;;;;;;8.30;4.23;;;0.90;60.40;;;;;;4875758;29;20120;-78
2021/12/21 03:39:55;;;;;;;7.53;3.80;;;0.90;60.50;;;;;;4887857;29;20365;-78
2021/12/21 03:42:23;;;;;;;6.77;4.17;;;0.90;60.40;;;;;;4902278;29;20032;-78
2021/12/21 03:44:48;;;;;;;7.57;4.63;;;0.90;60.30;;;;;;4872570;29;20093;-78
2021/12/21 03:47:16;;;;;;;5.63;3.67;;;0.80;60.30;;;;;;4913547;29;20412;-77
2021/12/21 03:52:17;;;;;;;7.60;4.43;;;0.80;60.60;;;;;;4895635;29;20024;-78
2021/12/21 03:54:46;;;;;;;7.80;4.37;;;0.90;60.70;;;;;;4887110;29;20289;-78
2021/12/21 03:57:13;;;;;;;8.80;4.43;;;0.90;60.50;;;;;;4883548;29;20281;-77
2021/12/21 03:59:41;;;;;;;8.50;4.23;;;0.80;60.50;;;;;;4879626;29;20369;-78
2021/12/21 04:02:08;;;;;;;6.10;3.43;;;0.80;60.70;;;;;;4896720;29;20033;-77
2021/12/21 04:04:33;;;;;;;8.47;4.40;;;0.80;60.80;;;;;;4899395;29;20284;-78
2021/12/21 04:06:59;;;;;;;85.17;7.93;;;0.70;61.00;;;;;;4893593;29;20293;-77
2021/12/21 04:09:25;;;;;;;6.83;3.90;;;0.80;61.10;;;;;;4868438;29;20116;-77
2021/12/21 04:11:51;;;;;;;11.07;4.67;;;0.70;61.20;;;;;;4880381;29;20032;-77
2021/12/21 04:14:18;;;;;;;8.53;5.00;;;0.70;61.20;;;;;;4893794;29;20472;-78
2021/12/21 04:16:44;;;;;;;8.77;4.10;;;0.70;61.10;;;;;;4881550;29;20033;-78
2021/12/21 04:19:11;;;;;;;7.13;4.47;;;0.60;61.50;;;;;;4894890;29;20364;-78
2021/12/21 04:21:36;;;;;;;8.30;3.50;;;0.60;61.50;;;;;;4877169;29;20391;-78
2021/12/21 04:24:05;;;;;;;6.00;3.73;;;0.70;61.50;;;;;;4897159;29;20032;-77
2021/12/21 04:26:32;;;;;;;6.60;4.27;;;0.70;61.40;;;;;;4876241;29;20044;-78
2021/12/21 04:28:58;;;;;;;7.57;4.93;;;0.70;61.10;;;;;;4890669;29;20396;-78
2021/12/21 04:31:24;;;;;;;6.07;3.97;;;0.60;61.10;;;;;;4902538;29;20059;-78
2021/12/21 04:33:50;;;;;;;8.23;3.50;;;0.50;61.30;;;;;;4898566;29;20043;-77
2021/12/21 04:36:16;;;;;;;6.70;3.30;;;0.50;61.40;;;;;;4899492;29;20036;-78
2021/12/21 04:38:47;;;;;;;6.17;3.63;;;0.60;61.40;;;;;;4898706;29;20850;-78
2021/12/21 04:41:32;;;;;;;11.80;3.53;;;0.60;61.30;;;;;;4881300;29;20472;-77
2021/12/21 04:43:59;;;;;;;7.10;3.60;;;0.60;61.30;;;;;;4890303;29;20096;-77
2021/12/21 04:46:26;;;;;;;6.57;3.70;;;0.60;61.10;;;;;;4895504;29;20299;-78
2021/12/21 04:48:53;;;;;;;7.20;4.10;;;0.50;61.40;;;;;;4893997;29;20277;-77
2021/12/21 04:51:19;;;;;;;7.23;3.93;;;0.50;61.40;;;;;;4869731;29;20044;-78
2021/12/21 04:53:45;;;;;;;7.40;4.00;;;0.50;61.40;;;;;;4870652;29;20024;-77
2021/12/21 04:56:11;;;;;;;7.73;3.63;;;0.50;61.60;;;;;;4891210;29;20415;-77
2021/12/21 04:58:37;;;;;;;6.23;3.53;;;0.50;61.50;;;;;;4878128;29;20807;-78
2021/12/21 05:01:03;;;;;;;9.30;4.17;;;0.50;61.40;;;;;;4870887;29;20040;-77
2021/12/21 05:03:29;;;;;;;9.77;5.13;;;0.40;61.20;;;;;;4888393;29;20492;-77
2021/12/21 05:05:55;;;;;;;10.53;5.13;;;0.40;61.50;;;;;;4878858;29;20285;-77
2021/12/21 05:08:31;;;;;;;6.73;3.53;;;0.30;61.70;;;;;;4890787;29;20504;-78
2021/12/21 05:11:04;;;;;;;8.97;4.33;;;0.30;61.70;;;;;;4897758;29;20029;-78
2021/12/21 05:13:34;;;;;;;7.67;4.93;;;0.30;61.50;;;;;;4881298;29;20269;-77
2021/12/21 05:16:00;;;;;;;10.27;4.87;;;0.30;61.70;;;;;;4891677;29;20464;-78
2021/12/21 05:18:27;;;;;;;9.27;6.17;;;0.40;61.60;;;;;;4876292;29;20317;-78
2021/12/21 05:20:54;;;;;;;8.20;4.77;;;0.30;61.50;;;;;;4890449;29;20037;-78
2021/12/21 05:23:20;;;;;;;9.37;6.03;;;0.30;61.70;;;;;;4878777;29;20372;-78
2021/12/21 05:25:47;;;;;;;8.83;5.37;;;0.30;61.60;;;;;;4875658;29;20819;-77
2021/12/21 05:28:14;;;;;;;7.30;4.63;;;0.30;61.80;;;;;;4873857;29;20036;-78
2021/12/21 05:30:42;;;;;;;8.17;4.70;;;0.30;61.80;;;;;;4897528;29;20859;-78
2021/12/21 05:33:08;;;;;;;10.70;4.90;;;0.30;61.90;;;;;;4897901;29;20277;-78
2021/12/21 05:35:35;;;;;;;10.63;5.07;;;0.30;61.80;;;;;;4892532;29;20341;-78
2021/12/21 05:38:05;;;;;;;11.07;4.67;;;0.30;61.60;;;;;;4889949;29;20060;-78
2021/12/21 05:40:38;;;;;;;10.27;5.30;;;0.30;61.60;;;;;;4897939;29;20288;-78
2021/12/21 05:43:05;;;;;;;11.13;5.37;;;0.30;61.70;;;;;;4875821;29;20274;-78
2021/12/21 05:45:31;;;;;;;8.50;4.90;;;0.20;61.40;;;;;;4885901;29;20291;-78
2021/12/21 05:47:57;;;;;;;9.70;5.20;;;0.20;61.70;;;;;;4888363;29;20656;-78
2021/12/21 05:50:22;;;;;;;8.60;4.73;;;0.20;61.90;;;;;;4871767;29;20421;-78
2021/12/21 05:52:49;;;;;;;7.97;3.80;;;0.20;61.90;;;;;;4869901;29;20115;-78
2021/12/21 05:55:17;;;;;;;11.67;5.23;;;0.30;61.90;;;;;;4868981;29;20391;-78
2021/12/21 05:57:43;;;;;;;13.03;6.00;;;0.30;61.70;;;;;;4893051;29;20654;-78
2021/12/21 06:00:13;;;;;;;10.43;5.43;;;0.30;61.90;;;;;;4876283;29;20304;-78
2021/12/21 06:02:40;;;;;;;9.60;6.20;;;0.30;61.90;;;;;;4882605;29;20636;-78
2021/12/21 06:05:06;;;;;;;11.10;6.00;;;0.30;61.80;;;;;;4898710;29;20284;-78
2021/12/21 06:07:33;;;;;;;11.83;6.07;;;0.30;61.80;;;;;;4875335;29;20288;-78
2021/12/21 06:10:08;;;;;;;10.33;6.33;;;0.20;61.70;;;;;;4902267;29;20130;-78
2021/12/21 06:13:41;;;;;;;14.87;6.40;;;0.20;61.80;;;;;;4891875;29;20080;-78
2021/12/21 06:26:11;;;;;;;19.07;10.80;;;0.20;61.60;;;;;;4898711;29;20303;-78
2021/12/21 06:28:37;;;;;;;20.27;11.83;;;0.20;61.60;;;;;;4896696;29;20343;-78
2021/12/21 06:31:04;;;;;;;25.47;11.63;;;0.20;61.60;;;;;;4881811;29;20283;-78
2021/12/21 06:33:30;;;;;;;21.13;12.00;;;0.20;61.70;;;;;;4881726;29;20293;-78
2021/12/21 06:35:56;;;;;;;34.43;14.60;;;0.20;61.60;;;;;;4898423;29;20300;-78
2021/12/21 06:38:22;;;;;;;21.83;12.43;;;0.20;61.70;;;;;;4881412;29;20364;-78
2021/12/21 06:40:48;;;;;;;22.70;13.17;;;0.20;61.60;;;;;;4898451;29;20036;-78
2021/12/21 06:43:16;;;;;;;17.90;11.97;;;0.20;61.70;;;;;;4880193;29;20092;-78
2021/12/21 06:45:48;;;;;;;17.43;10.67;;;0.20;61.50;;;;;;4896938;29;20292;-78
2021/12/21 06:51:28;;;;;;;29.73;21.33;;;0.10;61.50;;;;;;4897712;29;20356;-78
2021/12/21 06:53:56;;;;;;;18.23;11.27;;;0.20;61.30;;;;;;4878181;29;20278;-78
2021/12/21 06:56:23;;;;;;;16.23;8.60;;;0.10;61.20;;;;;;4881257;29;20280;-78
2021/12/21 06:58:50;;;;;;;12.47;7.30;;;0.00;61.30;;;;;;4894393;29;20092;-78
2021/12/21 07:01:16;;;;;;;18.17;8.97;;;0.10;61.50;;;;;;4896260;29;20280;-78
2021/12/21 07:03:43;;;;;;;17.17;9.20;;;0.10;61.20;;;;;;4883561;29;20287;-78
2021/12/21 07:06:10;;;;;;;19.47;11.57;;;0.00;61.30;;;;;;4889658;29;20281;-78
2021/12/21 07:08:51;;;;;;;18.20;11.00;;;-0.10;61.60;;;;;;4889925;29;20293;-78
2021/12/21 07:19:33;;;;;;;28.10;11.80;;;-0.10;61.80;;;;;;4879581;29;20313;-78
2021/12/21 07:21:59;;;;;;;28.57;12.00;;;-0.10;61.80;;;;;;4884745;29;20664;-78
2021/12/21 07:24:25;;;;;;;38.83;15.23;;;-0.10;62.10;;;;;;4880874;29;20548;-78
2021/12/21 07:26:51;;;;;;;41.30;17.60;;;-0.10;62.20;;;;;;4880061;29;20542;-78
2021/12/21 07:29:17;;;;;;;42.80;17.93;;;-0.10;62.00;;;;;;4898054;29;20756;-78
2021/12/21 07:31:44;;;;;;;40.33;17.93;;;-0.20;62.00;;;;;;4897514;29;20293;-78
2021/12/21 07:34:09;;;;;;;50.07;18.90;;;-0.20;62.20;;;;;;4896989;29;20304;-78
2021/12/21 07:36:35;;;;;;;38.37;16.83;;;-0.20;62.30;;;;;;4880756;29;20379;-78
2021/12/21 07:39:05;;;;;;;44.17;17.77;;;-0.20;62.30;;;;;;4879276;29;20036;-78
2021/12/21 07:41:31;;;;;;;43.33;17.10;;;-0.20;62.20;;;;;;4896468;29;20044;-78
2021/12/21 07:43:57;;;;;;;52.47;19.70;;;-0.20;62.50;;;;;;4897492;29;20683;-77
2021/12/21 07:46:23;;;;;;;53.50;19.50;;;-0.20;62.50;;;;;;4897842;29;20064;-78
2021/12/21 07:48:49;;;;;;;36.77;16.63;;;-0.10;62.40;;;;;;4897661;29;20028;-78
2021/12/21 07:51:15;;;;;;;35.70;16.90;;;-0.10;62.20;;;;;;4881002;29;20084;-78
2021/12/21 07:53:42;;;;;;;29.03;13.60;;;-0.10;62.20;;;;;;4894320;29;20131;-78
2021/12/21 07:56:08;;;;;;;21.00;13.20;;;-0.10;62.20;;;;;;4896305;29;20028;-78
2021/12/21 07:58:35;;;;;;;21.93;12.77;;;-0.10;62.10;;;;;;4897764;29;20628;-78
2021/12/21 08:01:04;;;;;;;19.23;10.53;;;-0.10;62.40;;;;;;4880898;29;20273;-78
2021/12/21 08:03:32;;;;;;;17.77;10.73;;;-0.10;62.10;;;;;;4882576;29;20312;-78
2021/12/21 08:05:59;;;;;;;21.10;11.50;;;-0.10;62.30;;;;;;4884570;29;20688;-78
2021/12/21 08:08:28;;;;;;;18.80;10.77;;;-0.10;62.30;;;;;;4900284;29;20799;-78
2021/12/21 08:11:11;;;;;;;15.23;10.23;;;0.00;62.20;;;;;;4901103;29;20763;-78
2021/12/21 08:13:39;;;;;;;16.80;9.23;;;0.00;62.30;;;;;;4898919;29;20715;-78
2021/12/21 08:16:05;;;;;;;20.40;10.13;;;0.00;62.40;;;;;;4899302;29;20763;-78
2021/12/21 08:18:30;;;;;;;26.60;14.80;;;0.10;62.20;;;;;;4881347;29;20871;-78
2021/12/21 08:20:56;;;;;;;29.50;14.50;;;0.20;62.10;;;;;;4901382;29;20351;-78
2021/12/21 08:23:22;;;;;;;30.90;15.57;;;0.20;62.10;;;;;;4883904;29;20024;-78
2021/12/21 08:25:49;;;;;;;26.10;12.53;;;0.30;61.90;;;;;;4884088;29;20843;-78
2021/12/21 08:28:14;;;;;;;29.47;14.00;;;0.30;61.90;;;;;;4884490;29;20044;-78
2021/12/21 08:30:40;;;;;;;38.73;18.60;;;0.30;61.80;;;;;;4881884;29;20288;-77
2021/12/21 08:33:07;;;;;;;36.63;17.43;;;0.40;61.80;;;;;;4883753;29;20021;-78
2021/12/21 08:35:32;;;;;;;30.33;15.60;;;0.40;61.90;;;;;;4900773;29;20028;-78
2021/12/21 08:38:01;;;;;;;27.93;14.50;;;0.30;61.90;;;;;;4900326;29;20280;-78
2021/12/21 08:40:29;;;;;;;26.67;15.00;;;0.40;62.10;;;;;;4900649;29;20468;-78
2021/12/21 08:42:55;;;;;;;26.30;14.50;;;0.40;62.00;;;;;;4876354;29;20284;-78
2021/12/21 08:45:22;;;;;;;28.33;13.83;;;0.40;61.90;;;;;;4900633;29;20576;-78
2021/12/21 08:47:48;;;;;;;25.33;14.00;;;0.40;62.00;;;;;;4882807;29;20119;-78
2021/12/21 08:50:14;;;;;;;30.60;15.37;;;0.50;62.20;;;;;;4883861;29;20406;-78
2021/12/21 08:52:40;;;;;;;30.57;14.27;;;0.50;62.30;;;;;;4900527;29;20717;-78
2021/12/21 08:55:08;;;;;;;28.20;13.13;;;0.50;62.20;;;;;;4900580;29;20277;-78
2021/12/21 08:57:36;;;;;;;22.30;11.43;;;0.60;62.10;;;;;;4899606;29;20288;-78
2021/12/21 09:00:05;;;;;;;18.57;9.77;;;0.70;62.10;;;;;;4900053;29;20823;-78
2021/12/21 09:02:35;;;;;;;18.90;9.90;;;0.70;61.80;;;;;;4899005;29;20033;-78
2021/12/21 09:05:00;;;;;;;17.93;9.20;;;0.70;61.70;;;;;;4900387;29;20311;-78
2021/12/21 09:07:26;;;;;;;25.13;11.30;;;0.70;61.40;;;;;;4899850;29;20688;-78
2021/12/21 09:09:52;;;;;;;26.20;11.27;;;0.70;61.40;;;;;;4900133;29;20029;-78
2021/12/21 09:12:17;;;;;;;23.37;11.97;;;0.70;61.40;;;;;;4899394;29;20512;-78
2021/12/21 09:14:43;;;;;;;24.00;11.30;;;0.80;61.50;;;;;;4899083;29;20031;-78
2021/12/21 09:17:09;;;;;;;18.70;11.07;;;0.90;61.50;;;;;;4883162;29;20041;-78
2021/12/21 09:19:35;;;;;;;23.97;11.87;;;1.00;61.40;;;;;;4883139;29;20047;-78
2021/12/21 09:22:01;;;;;;;21.80;11.57;;;1.00;61.30;;;;;;4881520;29;20100;-78
2021/12/21 09:24:28;;;;;;;22.50;11.83;;;1.20;61.30;;;;;;4879718;29;20400;-78
2021/12/21 09:26:54;;;;;;;24.47;10.17;;;1.30;61.40;;;;;;4888585;29;20044;-78
2021/12/21 09:29:19;;;;;;;17.00;9.43;;;1.40;61.30;;;;;;4899695;29;20025;-78
2021/12/21 09:31:45;;;;;;;15.33;8.93;;;1.50;61.10;;;;;;4900407;29;20024;-78
2021/12/21 09:34:11;;;;;;;15.20;9.13;;;1.60;61.20;;;;;;4894522;29;20108;-78
2021/12/21 09:36:37;;;;;;;19.03;9.73;;;1.70;61.10;;;;;;4886717;29;20029;-79
2021/12/21 09:39:02;;;;;;;18.83;11.33;;;1.80;61.00;;;;;;4887557;29;20035;-79
2021/12/21 09:41:28;;;;;;;19.93;12.17;;;1.90;60.80;;;;;;4899799;29;20490;-76
2021/12/21 09:43:54;;;;;;;17.90;11.30;;;2.00;60.70;;;;;;4899367;29;20036;-77
2021/12/21 09:46:20;;;;;;;19.13;10.90;;;2.00;60.80;;;;;;4899306;29;20029;-77
2021/12/21 09:48:46;;;;;;;18.30;10.23;;;2.10;60.80;;;;;;4899457;29;20100;-77
2021/12/21 09:51:12;;;;;;;16.73;9.83;;;2.20;60.80;;;;;;4899348;29;20024;-77
2021/12/21 09:53:38;;;;;;;16.63;10.13;;;2.30;60.60;;;;;;4879902;29;20024;-77
2021/12/21 09:56:05;;;;;;;18.50;11.17;;;2.30;60.60;;;;;;4879678;29;20032;-78
2021/12/21 09:58:31;;;;;;;18.97;11.07;;;2.40;60.60;;;;;;4880534;29;20399;-77
2021/12/21 10:00:57;;;;;;;21.20;10.83;;;2.50;60.60;;;;;;4880680;29;20621;-77
2021/12/21 10:03:22;;;;;;;19.07;11.43;;;2.50;60.40;;;;;;4877950;29;20111;-78
2021/12/21 10:05:49;;;;;;;19.57;10.67;;;2.60;60.30;;;;;;4882088;29;20043;-77
2021/12/21 10:08:17;;;;;;;24.07;10.97;;;2.70;60.30;;;;;;4898365;29;20632;-78
2021/12/21 10:10:52;;;;;;;20.03;10.53;;;2.80;60.20;;;;;;4888248;29;20119;-78
2021/12/21 10:13:26;;;;;;;17.57;9.93;;;2.90;60.10;;;;;;4894469;29;20356;-78
2021/12/21 10:15:59;;;;;;;17.23;9.90;;;3.00;60.00;;;;;;4897928;29;20104;-78
2021/12/21 10:18:29;;;;;;;26.42;9.82;;;3.20;59.80;;;;;;4898647;29;20033;-78
2021/12/21 10:21:00;;;;;;;15.97;9.40;;;3.40;59.60;;;;;;4897137;29;20035;-78
2021/12/21 10:23:31;;;;;;;16.03;9.53;;;3.60;59.50;;;;;;4894047;29;20747;-78
2021/12/21 10:26:00;;;;;;;16.53;9.50;;;3.90;59.20;;;;;;4897504;29;20033;-78
2021/12/21 10:28:36;;;;;;;15.53;8.17;;;4.20;58.70;;;;;;4897238;29;20040;-78
2021/12/21 10:31:21;;;;;;;12.90;6.93;;;4.50;58.00;;;;;;4898638;29;20020;-78
2021/12/21 10:33:47;;;;;;;16.13;6.77;;;4.80;57.20;;;;;;4898543;29;20028;-78
2021/12/21 10:36:14;;;;;;;13.13;7.37;;;5.10;56.70;;;;;;4881489;29;20021;-78
2021/12/21 10:38:56;;;;;;;14.93;7.10;;;5.20;56.20;;;;;;4881177;29;20547;-79
2021/12/21 10:41:33;;;;;;;15.67;9.13;;;5.30;55.70;;;;;;4864655;29;20500;-78
2021/12/21 10:44:06;;;;;;;18.33;9.53;;;5.50;55.70;;;;;;4898973;29;20061;-79
2021/12/21 10:46:35;;;;;;;14.10;7.97;;;5.60;55.60;;;;;;4898176;29;20033;-79
2021/12/21 10:49:22;;;;;;;17.00;7.37;;;5.70;55.50;;;;;;4879873;29;20424;-79
2021/12/21 10:51:52;;;;;;;13.37;6.50;;;5.70;55.00;;;;;;4898993;29;20032;-78
2021/12/21 10:54:32;;;;;;;15.00;8.70;;;5.70;54.90;;;;;;4898211;29;20024;-79
2021/12/21 10:57:06;;;;;;;15.37;7.87;;;5.70;54.80;;;;;;4881242;29;20039;-79
2021/12/21 10:59:35;;;;;;;11.97;7.00;;;5.70;54.50;;;;;;4879191;29;20033;-79
2021/12/21 11:02:11;;;;;;;9.83;6.77;;;5.70;54.70;;;;;;4897964;29;20048;-79
2021/12/21 11:04:39;;;;;;;11.80;7.80;;;5.70;54.50;;;;;;4896078;29;20029;-79
2021/12/21 11:07:54;;;;;;;12.93;7.90;;;5.80;54.50;;;;;;4895694;29;20076;-79
2021/12/21 11:10:25;;;;;;;15.00;7.43;;;6.00;53.90;;;;;;4893818;29;20127;-79
2021/12/21 11:12:56;;;;;;;13.73;7.57;;;5.90;53.60;;;;;;4897318;29;20392;-79
2021/12/21 11:15:28;;;;;;;14.13;7.27;;;6.00;53.80;;;;;;4881538;29;20103;-79
2021/12/21 11:18:03;;;;;;;12.57;7.07;;;6.10;53.30;;;;;;4912109;29;20033;-79
2021/12/21 11:20:30;;;;;;;11.67;7.53;;;6.10;52.90;;;;;;4881145;29;20040;-79
2021/12/21 11:22:56;;;;;;;10.77;6.73;;;6.10;52.90;;;;;;4897958;29;20036;-79
2021/12/21 11:25:22;;;;;;;10.40;6.67;;;6.20;52.80;;;;;;4895872;29;20102;-79
2021/12/21 11:27:49;;;;;;;9.47;6.53;;;6.30;52.50;;;;;;4897736;29;20092;-79
2021/12/21 11:30:24;;;;;;;11.57;7.23;;;6.40;52.20;;;;;;4912339;29;20036;-79
2021/12/21 11:32:52;;;;;;;14.63;7.50;;;6.40;52.00;;;;;;4911452;29;20047;-79
2021/12/21 11:38:04;;;;;;;13.37;7.10;;;6.40;51.30;;;;;;4897244;29;20108;-79
2021/12/21 11:40:34;;;;;;;10.13;6.88;;;6.40;51.30;;;;;;4894622;29;20037;-79
2021/12/21 11:43:02;;;;;;;10.83;6.57;;;6.40;51.30;;;;;;4897634;29;20036;-79
2021/12/21 11:45:41;;;;;;;14.90;7.23;;;6.60;51.40;;;;;;4897575;29;20440;-79
2021/12/21 11:48:09;;;;;;;11.13;6.83;;;6.70;50.90;;;;;;4880732;29;20063;-78
2021/12/21 11:50:37;;;;;;;11.80;7.00;;;6.70;50.70;;;;;;4880642;29;20024;-79
2021/12/21 11:53:06;;;;;;;10.87;6.90;;;6.70;50.40;;;;;;4880154;29;20480;-79
2021/12/21 11:55:35;;;;;;;13.17;6.93;;;6.80;50.40;;;;;;4895820;29;20028;-79
2021/12/21 11:58:18;;;;;;;10.20;6.60;;;6.70;50.20;;;;;;4879431;29;20025;-79
2021/12/21 12:00:54;;;;;;;12.43;7.07;;;6.70;50.00;;;;;;4880684;29;20084;-79
2021/12/21 12:03:23;;;;;;;11.10;6.83;;;6.70;50.10;;;;;;4896859;29;20491;-79
2021/12/21 12:05:57;;;;;;;11.47;6.77;;;6.70;50.00;;;;;;4897516;29;20036;-79
2021/12/21 12:08:39;;;;;;;12.00;6.60;;;6.80;49.90;;;;;;4880663;29;20553;-78
2021/12/21 12:11:06;;;;;;;13.80;6.70;;;6.90;49.70;;;;;;4897078;29;20025;-79
2021/12/21 12:13:40;;;;;;;13.57;6.63;;;6.90;49.30;;;;;;4896020;29;20028;-79
2021/12/21 12:16:08;;;;;;;14.37;7.90;;;7.00;49.20;;;;;;4875770;29;20067;-79
2021/12/21 12:18:35;;;;;;;9.37;6.57;;;7.00;49.00;;;;;;4880582;29;20085;-79
2021/12/21 12:21:14;;;;;;;9.03;5.90;;;6.90;48.70;;;;;;4880241;29;20080;-79
2021/12/21 12:23:49;;;;;;;9.90;6.17;;;7.00;48.80;;;;;;4896993;29;20029;-79
2021/12/21 12:26:31;;;;;;;20.33;6.47;;;6.90;48.50;;;;;;4895922;29;20033;-79
2021/12/21 12:29:13;;;;;;;15.45;6.65;;;6.90;48.50;;;;;;4879951;29;20076;-79
2021/12/21 12:31:42;;;;;;;9.25;6.18;;;6.90;48.40;;;;;;4896258;29;20028;-79
2021/12/21 12:34:08;;;;;;;13.40;7.70;;;6.90;48.70;;;;;;4892062;29;20029;-79
2021/12/21 12:36:39;;;;;;;14.43;8.00;;;7.00;48.80;;;;;;4897051;29;20037;-79
2021/12/21 12:39:06;;;;;;;16.47;8.17;;;7.10;48.80;;;;;;4888093;29;20093;-78
2021/12/21 12:41:44;;;;;;;22.47;8.30;;;7.10;48.80;;;;;;4877075;29;20496;-78
2021/12/21 12:44:19;;;;;;;17.20;8.70;;;7.10;48.70;;;;;;4892003;29;20499;-78
2021/12/21 12:46:53;;;;;;;18.73;8.53;;;7.00;48.90;;;;;;4896559;29;20037;-79
2021/12/21 12:49:24;;;;;;;11.80;8.13;;;7.00;49.10;;;;;;4880592;29;20080;-79
2021/12/21 12:51:50;;;;;;;11.93;7.70;;;6.90;49.10;;;;;;4899457;29;20099;-79
2021/12/21 12:54:18;;;;;;;13.07;8.73;;;6.90;49.30;;;;;;4883265;29;20032;-79
2021/12/21 12:56:44;;;;;;;11.53;6.80;;;6.90;49.20;;;;;;4900516;29;20059;-79
2021/12/21 12:59:10;;;;;;;22.53;8.30;;;6.80;49.10;;;;;;4899567;29;20057;-79
2021/12/21 13:01:44;;;;;;;14.30;7.60;;;6.80;49.10;;;;;;4899714;29;20102;-79
2021/12/21 13:04:14;;;;;;;16.50;7.47;;;6.70;49.10;;;;;;4883839;29;20029;-78
2021/12/21 13:06:42;;;;;;;14.43;7.40;;;6.70;49.30;;;;;;4898507;29;20116;-79
2021/12/21 13:09:12;;;;;;;15.13;7.57;;;6.70;49.30;;;;;;4900652;29;20397;-78
2021/12/21 13:11:40;;;;;;;14.60;8.23;;;6.60;49.40;;;;;;4899845;29;20046;-78
2021/12/21 13:14:08;;;;;;;19.03;7.63;;;6.50;49.30;;;;;;4884048;29;20063;-78
2021/12/21 13:16:35;;;;;;;13.00;7.20;;;6.30;49.30;;;;;;4899244;29;20117;-79
2021/12/21 13:19:12;;;;;;;14.07;7.50;;;6.30;49.40;;;;;;4899815;29;20492;-78
2021/12/21 13:21:44;;;;;;;11.50;6.87;;;6.30;49.40;;;;;;4883300;29;20373;-78
2021/12/21 13:24:19;;;;;;;19.52;8.25;;;6.30;49.40;;;;;;4880572;29;20080;-78
2021/12/21 13:26:51;;;;;;;18.40;7.53;;;6.30;49.30;;;;;;4893966;29;20043;-78
2021/12/21 13:29:22;;;;;;;13.25;6.88;;;6.30;49.40;;;;;;4882986;29;20557;-78
2021/12/21 13:31:54;;;;;;;12.30;7.13;;;6.30;49.50;;;;;;4882763;29;20515;-79
2021/12/21 13:34:21;;;;;;;12.50;7.53;;;6.30;49.50;;;;;;4899042;29;20039;-78
2021/12/21 13:36:56;;;;;;;20.00;8.30;;;6.20;49.50;;;;;;4899618;29;20028;-79
2021/12/21 13:39:23;;;;;;;19.57;7.83;;;6.20;49.50;;;;;;4882714;29;20184;-79
2021/12/21 13:42:02;;;;;;;13.30;7.47;;;6.10;49.50;;;;;;4880925;29;20518;-78
2021/12/21 13:44:29;;;;;;;13.00;6.80;;;6.00;49.40;;;;;;4896825;29;20029;-78
2021/12/21 13:46:56;;;;;;;14.03;6.93;;;5.90;49.40;;;;;;4884994;29;20040;-78
2021/12/21 13:49:22;;;;;;;18.87;8.60;;;5.90;49.50;;;;;;4899685;29;20049;-78
2021/12/21 13:51:54;;;;;;;15.27;8.60;;;5.80;49.30;;;;;;4899355;29;20058;-78
2021/12/21 13:54:23;;;;;;;20.37;11.77;;;5.70;49.30;;;;;;4899452;29;20032;-78
2021/12/21 13:56:50;;;;;;;27.93;10.43;;;5.60;49.50;;;;;;4899276;29;20036;-78
2021/12/21 13:59:17;;;;;;;19.23;8.97;;;5.50;49.70;;;;;;4897911;29;20487;-78
2021/12/21 14:01:46;;;;;;;16.67;9.10;;;5.40;50.00;;;;;;4885971;29;20560;-78